sensor_id;sensor_type;location;lat;lon;timestamp;P1;durP1;ratioP1;P2;durP2;ratioP2
1533;SDS011;760;48.822;9.304;2022-07-17T04:04:19;4.60;;;3.43;;
1533;SDS011;760;48.822;9.304;2022-07-17T04:06:44;4.70;;;3.73;;
1533;SDS011;760;48.822;9.304;2022-07-17T04:09:10;3.63;;;3.33;;
1533;SDS011;760;48.822;9.304;2022-07-17T04:11:36;3.73;;;3.53;;
1533;SDS011;760;48.822;9.304;2022-07-17T04:14:01;3.93;;;3.63;;
1533;SDS011;760;48.822;9.304;2022-07-17T04:16:27;3.90;;;3.60;;
1533;SDS011;760;48.822;9.304;2022-07-17T04:18:52;3.07;;;2.87;;
1533;SDS011;760;48.822;9.304;2022-07-17T04:21:18;4.40;;;4.10;;
1533;SDS011;760;48.822;9.304;2022-07-17T04:23:44;4.00;;;3.70;;
1533;SDS011;760;48.822;9.304;2022-07-17T04:26:10;4.10;;;3.67;;
1533;SDS011;760;48.822;9.304;2022-07-17T04:28:35;4.00;;;3.70;;
1533;SDS011;760;48.822;9.304;2022-07-17T04:31:01;4.20;;;3.90;;
1533;SDS011;760;48.822;9.304;2022-07-17T04:33:27;3.93;;;3.63;;
1533;SDS011;760;48.822;9.304;2022-07-17T04:35:53;3.90;;;3.60;;
1533;SDS011;760;48.822;9.304;2022-07-17T04:38:18;3.83;;;3.63;;
1533;SDS011;760;48.822;9.304;2022-07-17T04:40:44;4.80;;;4.00;;
1533;SDS011;760;48.822;9.304;2022-07-17T04:43:11;3.60;;;3.30;;
1533;SDS011;760;48.822;9.304;2022-07-17T04:45:37;3.73;;;3.43;;
1533;SDS011;760;48.822;9.304;2022-07-17T04:48:03;3.77;;;3.50;;
1533;SDS011;760;48.822;9.304;2022-07-17T04:50:28;3.87;;;3.57;;
1533;SDS011;760;48.822;9.304;2022-07-17T04:52:54;4.10;;;3.83;;
1533;SDS011;760;48.822;9.304;2022-07-17T04:55:20;3.97;;;3.57;;
1533;SDS011;760;48.822;9.304;2022-07-17T04:57:45;4.07;;;3.27;;
1533;SDS011;760;48.822;9.304;2022-07-17T05:00:11;4.30;;;3.40;;
1533;SDS011;760;48.822;9.304;2022-07-17T05:02:37;3.67;;;3.37;;
1533;SDS011;760;48.822;9.304;2022-07-17T05:05:03;3.87;;;3.57;;
1533;SDS011;760;48.822;9.304;2022-07-17T05:07:30;4.00;;;3.60;;
1533;SDS011;760;48.822;9.304;2022-07-17T05:09:55;4.03;;;3.63;;
1533;SDS011;760;48.822;9.304;2022-07-17T05:12:21;3.70;;;3.40;;
1533;SDS011;760;48.822;9.304;2022-07-17T05:14:47;6.20;;;3.70;;
1533;SDS011;760;48.822;9.304;2022-07-17T05:17:12;5.43;;;3.90;;
1533;SDS011;760;48.822;9.304;2022-07-17T05:19:38;3.57;;;3.37;;
1533;SDS011;760;48.822;9.304;2022-07-17T05:22:04;3.93;;;3.67;;
1533;SDS011;760;48.822;9.304;2022-07-17T05:24:30;4.17;;;3.87;;
1533;SDS011;760;48.822;9.304;2022-07-17T05:26:57;3.83;;;3.50;;
1533;SDS011;760;48.822;9.304;2022-07-17T05:29:22;4.00;;;3.70;;
1533;SDS011;760;48.822;9.304;2022-07-17T05:31:48;4.63;;;3.90;;
1533;SDS011;760;48.822;9.304;2022-07-17T05:34:14;4.40;;;3.90;;
1533;SDS011;760;48.822;9.304;2022-07-17T05:36:39;3.83;;;3.53;;
1533;SDS011;760;48.822;9.304;2022-07-17T05:39:05;4.10;;;3.80;;
1533;SDS011;760;48.822;9.304;2022-07-17T05:41:31;10.63;;;4.03;;
1533;SDS011;760;48.822;9.304;2022-07-17T05:43:56;4.87;;;4.37;;
1533;SDS011;760;48.822;9.304;2022-07-17T05:46:22;4.23;;;3.83;;
1533;SDS011;760;48.822;9.304;2022-07-17T05:48:48;4.57;;;4.20;;
1533;SDS011;760;48.822;9.304;2022-07-17T05:51:13;5.80;;;5.30;;
1533;SDS011;760;48.822;9.304;2022-07-17T05:53:39;4.27;;;3.97;;
1533;SDS011;760;48.822;9.304;2022-07-17T05:56:05;4.20;;;3.90;;
1533;SDS011;760;48.822;9.304;2022-07-17T05:58:30;4.00;;;3.70;;
1533;SDS011;760;48.822;9.304;2022-07-17T06:00:56;3.53;;;3.23;;
1533;SDS011;760;48.822;9.304;2022-07-17T06:03:22;4.33;;;3.93;;
1533;SDS011;760;48.822;9.304;2022-07-17T06:05:47;3.87;;;3.53;;
1533;SDS011;760;48.822;9.304;2022-07-17T06:08:13;4.30;;;3.90;;
1533;SDS011;760;48.822;9.304;2022-07-17T06:10:38;3.33;;;3.13;;
1533;SDS011;760;48.822;9.304;2022-07-17T06:13:04;3.63;;;3.33;;
1533;SDS011;760;48.822;9.304;2022-07-17T06:15:30;3.83;;;3.53;;
1533;SDS011;760;48.822;9.304;2022-07-17T06:17:59;3.23;;;3.00;;
1533;SDS011;760;48.822;9.304;2022-07-17T06:20:28;3.40;;;3.20;;
1533;SDS011;760;48.822;9.304;2022-07-17T06:22:55;3.83;;;3.50;;
1533;SDS011;760;48.822;9.304;2022-07-17T06:25:20;3.37;;;3.13;;
1533;SDS011;760;48.822;9.304;2022-07-17T06:27:46;3.03;;;2.83;;
1533;SDS011;760;48.822;9.304;2022-07-17T06:30:12;3.33;;;3.13;;
1533;SDS011;760;48.822;9.304;2022-07-17T06:32:39;3.17;;;2.90;;
1533;SDS011;760;48.822;9.304;2022-07-17T06:35:05;3.07;;;2.87;;
1533;SDS011;760;48.822;9.304;2022-07-17T06:37:32;2.83;;;2.63;;
1533;SDS011;760;48.822;9.304;2022-07-17T06:39:57;3.10;;;2.90;;
1533;SDS011;760;48.822;9.304;2022-07-17T06:42:23;3.43;;;3.23;;
1533;SDS011;760;48.822;9.304;2022-07-17T06:44:49;5.60;;;3.73;;
1533;SDS011;760;48.822;9.304;2022-07-17T06:47:14;4.70;;;4.30;;
1533;SDS011;760;48.822;9.304;2022-07-17T06:49:40;3.50;;;3.30;;
1533;SDS011;760;48.822;9.304;2022-07-17T06:52:06;3.00;;;2.80;;
1533;SDS011;760;48.822;9.304;2022-07-17T06:54:31;3.57;;;3.27;;
1533;SDS011;760;48.822;9.304;2022-07-17T06:56:57;3.13;;;2.93;;
1533;SDS011;760;48.822;9.304;2022-07-17T06:59:23;3.10;;;2.90;;
1533;SDS011;760;48.822;9.304;2022-07-17T07:01:48;2.93;;;2.83;;
1533;SDS011;760;48.822;9.304;2022-07-17T07:04:14;3.10;;;2.90;;
1533;SDS011;760;48.822;9.304;2022-07-17T07:06:40;4.20;;;2.77;;
1533;SDS011;760;48.822;9.304;2022-07-17T07:09:07;3.23;;;2.97;;
1533;SDS011;760;48.822;9.304;2022-07-17T07:11:33;3.20;;;2.90;;
1533;SDS011;760;48.822;9.304;2022-07-17T07:13:58;2.80;;;2.60;;
1533;SDS011;760;48.822;9.304;2022-07-17T07:16:24;3.30;;;2.90;;
1533;SDS011;760;48.822;9.304;2022-07-17T07:18:50;2.90;;;2.53;;
1533;SDS011;760;48.822;9.304;2022-07-17T07:21:15;3.10;;;2.90;;
1533;SDS011;760;48.822;9.304;2022-07-17T07:23:41;2.97;;;2.70;;
1533;SDS011;760;48.822;9.304;2022-07-17T07:26:07;2.90;;;2.70;;
1533;SDS011;760;48.822;9.304;2022-07-17T07:28:32;3.23;;;3.03;;
1533;SDS011;760;48.822;9.304;2022-07-17T07:30:59;3.10;;;2.90;;
1533;SDS011;760;48.822;9.304;2022-07-17T07:33:25;2.63;;;2.53;;
1533;SDS011;760;48.822;9.304;2022-07-17T07:35:50;3.73;;;3.17;;
1533;SDS011;760;48.822;9.304;2022-07-17T07:38:16;3.07;;;2.80;;
1533;SDS011;760;48.822;9.304;2022-07-17T07:40:42;2.20;;;2.10;;
1533;SDS011;760;48.822;9.304;2022-07-17T07:43:08;2.50;;;2.40;;
1533;SDS011;760;48.822;9.304;2022-07-17T07:45:33;2.63;;;2.43;;
1533;SDS011;760;48.822;9.304;2022-07-17T07:47:59;2.87;;;2.77;;
1533;SDS011;760;48.822;9.304;2022-07-17T07:50:25;3.20;;;3.00;;
1533;SDS011;760;48.822;9.304;2022-07-17T07:52:51;2.63;;;2.53;;
1533;SDS011;760;48.822;9.304;2022-07-17T07:55:17;2.60;;;2.50;;
1533;SDS011;760;48.822;9.304;2022-07-17T07:57:43;2.17;;;2.03;;
1533;SDS011;760;48.822;9.304;2022-07-17T08:00:10;2.57;;;2.47;;
1533;SDS011;760;48.822;9.304;2022-07-17T08:02:37;2.90;;;2.70;;
1533;SDS011;760;48.822;9.304;2022-07-17T08:05:03;2.80;;;2.70;;
1533;SDS011;760;48.822;9.304;2022-07-17T08:07:29;2.93;;;2.83;;
1533;SDS011;760;48.822;9.304;2022-07-17T08:09:57;2.83;;;2.73;;
1533;SDS011;760;48.822;9.304;2022-07-17T08:12:23;2.90;;;2.70;;
1533;SDS011;760;48.822;9.304;2022-07-17T08:14:49;3.30;;;3.10;;
1533;SDS011;760;48.822;9.304;2022-07-17T08:17:15;3.43;;;3.23;;
1533;SDS011;760;48.822;9.304;2022-07-17T08:19:42;3.20;;;3.10;;
1533;SDS011;760;48.822;9.304;2022-07-17T08:22:08;3.53;;;2.77;;
1533;SDS011;760;48.822;9.304;2022-07-17T08:24:34;2.90;;;2.80;;
1533;SDS011;760;48.822;9.304;2022-07-17T08:26:59;3.17;;;2.97;;
1533;SDS011;760;48.822;9.304;2022-07-17T08:29:25;3.10;;;2.90;;
1533;SDS011;760;48.822;9.304;2022-07-17T08:31:50;3.50;;;3.20;;
1533;SDS011;760;48.822;9.304;2022-07-17T08:34:18;2.93;;;2.80;;
1533;SDS011;760;48.822;9.304;2022-07-17T08:36:44;3.83;;;3.63;;
1533;SDS011;760;48.822;9.304;2022-07-17T08:39:09;2.57;;;2.47;;
1533;SDS011;760;48.822;9.304;2022-07-17T08:41:36;2.83;;;2.73;;
1533;SDS011;760;48.822;9.304;2022-07-17T08:44:03;2.77;;;2.67;;
1533;SDS011;760;48.822;9.304;2022-07-17T08:46:34;2.70;;;2.60;;
1533;SDS011;760;48.822;9.304;2022-07-17T08:49:01;2.80;;;2.70;;
1533;SDS011;760;48.822;9.304;2022-07-17T08:51:28;3.10;;;2.90;;
1533;SDS011;760;48.822;9.304;2022-07-17T08:53:55;2.80;;;2.70;;
1533;SDS011;760;48.822;9.304;2022-07-17T08:56:22;3.27;;;3.07;;
1533;SDS011;760;48.822;9.304;2022-07-17T08:58:47;3.10;;;2.90;;
1533;SDS011;760;48.822;9.304;2022-07-17T09:01:14;4.63;;;4.33;;
1533;SDS011;760;48.822;9.304;2022-07-17T09:03:41;5.83;;;4.00;;
1533;SDS011;760;48.822;9.304;2022-07-17T09:06:19;2.60;;;2.50;;
1533;SDS011;760;48.822;9.304;2022-07-17T09:08:45;2.93;;;2.83;;
1533;SDS011;760;48.822;9.304;2022-07-17T09:11:11;2.47;;;2.37;;
1533;SDS011;760;48.822;9.304;2022-07-17T09:13:37;2.53;;;2.43;;
1533;SDS011;760;48.822;9.304;2022-07-17T09:18:42;3.20;;;3.10;;
1533;SDS011;760;48.822;9.304;2022-07-17T09:21:25;2.60;;;2.50;;
1533;SDS011;760;48.822;9.304;2022-07-17T09:24:02;2.90;;;2.80;;
1533;SDS011;760;48.822;9.304;2022-07-17T09:26:30;2.93;;;2.83;;
1533;SDS011;760;48.822;9.304;2022-07-17T09:28:59;2.67;;;2.57;;
1533;SDS011;760;48.822;9.304;2022-07-17T09:31:30;2.57;;;2.47;;
1533;SDS011;760;48.822;9.304;2022-07-17T09:33:57;2.87;;;2.73;;
1533;SDS011;760;48.822;9.304;2022-07-17T09:36:23;2.70;;;2.60;;
1533;SDS011;760;48.822;9.304;2022-07-17T09:38:53;2.80;;;2.70;;
1533;SDS011;760;48.822;9.304;2022-07-17T09:41:22;3.00;;;2.90;;
1533;SDS011;760;48.822;9.304;2022-07-17T09:43:50;2.87;;;2.70;;
1533;SDS011;760;48.822;9.304;2022-07-17T09:46:24;2.93;;;2.80;;
1533;SDS011;760;48.822;9.304;2022-07-17T09:49:04;2.90;;;2.70;;
1533;SDS011;760;48.822;9.304;2022-07-17T09:51:35;3.20;;;3.00;;
1533;SDS011;760;48.822;9.304;2022-07-17T09:54:05;2.40;;;2.30;;
1533;SDS011;760;48.822;9.304;2022-07-17T09:56:35;3.00;;;2.90;;
1533;SDS011;760;48.822;9.304;2022-07-17T09:59:09;2.67;;;2.57;;
1533;SDS011;760;48.822;9.304;2022-07-17T10:01:36;3.00;;;2.90;;
1533;SDS011;760;48.822;9.304;2022-07-17T10:04:05;2.50;;;2.40;;
1533;SDS011;760;48.822;9.304;2022-07-17T10:06:31;2.87;;;2.67;;
1533;SDS011;760;48.822;9.304;2022-07-17T10:08:59;2.43;;;2.33;;
1533;SDS011;760;48.822;9.304;2022-07-17T10:11:28;2.80;;;2.70;;
1533;SDS011;760;48.822;9.304;2022-07-17T10:13:56;2.93;;;2.80;;
1533;SDS011;760;48.822;9.304;2022-07-17T10:16:27;2.87;;;2.77;;
1533;SDS011;760;48.822;9.304;2022-07-17T10:18:54;2.80;;;2.70;;
1533;SDS011;760;48.822;9.304;2022-07-17T10:21:22;2.57;;;2.47;;
1533;SDS011;760;48.822;9.304;2022-07-17T10:26:30;2.73;;;2.63;;
1533;SDS011;760;48.822;9.304;2022-07-17T10:29:01;2.57;;;2.47;;
1533;SDS011;760;48.822;9.304;2022-07-17T10:31:29;3.23;;;2.47;;
1533;SDS011;760;48.822;9.304;2022-07-17T10:33:58;2.37;;;2.27;;
1533;SDS011;760;48.822;9.304;2022-07-17T10:36:32;2.63;;;2.53;;
1533;SDS011;760;48.822;9.304;2022-07-17T10:39:11;2.67;;;2.57;;
1533;SDS011;760;48.822;9.304;2022-07-17T10:41:41;2.87;;;2.70;;
1533;SDS011;760;48.822;9.304;2022-07-17T10:44:08;2.97;;;2.77;;
1533;SDS011;760;48.822;9.304;2022-07-17T10:46:33;2.93;;;2.70;;
1533;SDS011;760;48.822;9.304;2022-07-17T10:49:00;3.00;;;2.80;;
1533;SDS011;760;48.822;9.304;2022-07-17T10:51:29;2.30;;;2.20;;
1533;SDS011;760;48.822;9.304;2022-07-17T10:53:58;2.80;;;2.70;;
1533;SDS011;760;48.822;9.304;2022-07-17T10:56:25;2.90;;;2.60;;
1533;SDS011;760;48.822;9.304;2022-07-17T10:58:51;2.40;;;2.30;;
1533;SDS011;760;48.822;9.304;2022-07-17T11:01:18;2.97;;;2.80;;
1533;SDS011;760;48.822;9.304;2022-07-17T11:03:46;2.87;;;2.67;;
1533;SDS011;760;48.822;9.304;2022-07-17T11:08:57;3.40;;;3.20;;
1533;SDS011;760;48.822;9.304;2022-07-17T11:11:39;2.53;;;2.43;;
1533;SDS011;760;48.822;9.304;2022-07-17T11:14:06;2.90;;;2.70;;
1533;SDS011;760;48.822;9.304;2022-07-17T11:16:33;2.67;;;2.57;;
1533;SDS011;760;48.822;9.304;2022-07-17T11:18:58;2.47;;;2.37;;
1533;SDS011;760;48.822;9.304;2022-07-17T11:21:24;2.67;;;2.50;;
1533;SDS011;760;48.822;9.304;2022-07-17T11:23:56;3.30;;;3.07;;
1533;SDS011;760;48.822;9.304;2022-07-17T11:26:22;2.60;;;2.50;;
1533;SDS011;760;48.822;9.304;2022-07-17T11:28:49;2.53;;;2.43;;
1533;SDS011;760;48.822;9.304;2022-07-17T11:34:04;2.73;;;2.60;;
1533;SDS011;760;48.822;9.304;2022-07-17T11:39:09;2.60;;;2.50;;
1533;SDS011;760;48.822;9.304;2022-07-17T11:41:44;2.57;;;2.47;;
1533;SDS011;760;48.822;9.304;2022-07-17T11:44:18;2.23;;;2.07;;
1533;SDS011;760;48.822;9.304;2022-07-17T11:46:46;2.10;;;2.00;;
1533;SDS011;760;48.822;9.304;2022-07-17T11:49:24;2.37;;;2.23;;
1533;SDS011;760;48.822;9.304;2022-07-17T11:51:54;2.87;;;2.60;;
1533;SDS011;760;48.822;9.304;2022-07-17T11:54:22;2.70;;;2.50;;
1533;SDS011;760;48.822;9.304;2022-07-17T11:56:52;2.07;;;1.97;;
1533;SDS011;760;48.822;9.304;2022-07-17T11:59:30;4.30;;;3.90;;
1533;SDS011;760;48.822;9.304;2022-07-17T12:02:05;3.20;;;3.00;;
1533;SDS011;760;48.822;9.304;2022-07-17T12:04:47;2.90;;;2.40;;
1533;SDS011;760;48.822;9.304;2022-07-17T12:07:17;3.67;;;3.37;;
1533;SDS011;760;48.822;9.304;2022-07-17T12:09:43;3.73;;;3.43;;
1533;SDS011;760;48.822;9.304;2022-07-17T12:17:24;2.70;;;2.53;;
1533;SDS011;760;48.822;9.304;2022-07-17T12:20:02;2.20;;;2.10;;
1533;SDS011;760;48.822;9.304;2022-07-17T12:22:29;2.07;;;1.97;;
1533;SDS011;760;48.822;9.304;2022-07-17T12:24:56;3.83;;;3.53;;
1533;SDS011;760;48.822;9.304;2022-07-17T12:27:22;3.30;;;3.00;;
1533;SDS011;760;48.822;9.304;2022-07-17T12:29:49;2.80;;;2.60;;
1533;SDS011;760;48.822;9.304;2022-07-17T12:32:15;2.20;;;2.10;;
1533;SDS011;760;48.822;9.304;2022-07-17T12:34:43;2.43;;;2.33;;
1533;SDS011;760;48.822;9.304;2022-07-17T12:37:13;2.03;;;1.93;;
1533;SDS011;760;48.822;9.304;2022-07-17T12:39:44;2.00;;;1.90;;
1533;SDS011;760;48.822;9.304;2022-07-17T12:42:12;2.20;;;2.10;;
1533;SDS011;760;48.822;9.304;2022-07-17T12:44:41;2.70;;;2.60;;
1533;SDS011;760;48.822;9.304;2022-07-17T12:47:07;1.93;;;1.83;;
1533;SDS011;760;48.822;9.304;2022-07-17T12:49:33;1.70;;;1.60;;
1533;SDS011;760;48.822;9.304;2022-07-17T12:51:59;2.10;;;2.00;;
1533;SDS011;760;48.822;9.304;2022-07-17T12:54:25;2.67;;;2.47;;
1533;SDS011;760;48.822;9.304;2022-07-17T12:56:51;2.07;;;1.93;;
1533;SDS011;760;48.822;9.304;2022-07-17T12:59:17;2.20;;;2.10;;
1533;SDS011;760;48.822;9.304;2022-07-17T13:01:43;2.20;;;2.10;;
1533;SDS011;760;48.822;9.304;2022-07-17T13:04:10;2.30;;;2.10;;
1533;SDS011;760;48.822;9.304;2022-07-17T13:06:36;3.47;;;2.00;;
1533;SDS011;760;48.822;9.304;2022-07-17T13:09:02;2.10;;;1.90;;
1533;SDS011;760;48.822;9.304;2022-07-17T13:11:28;5.00;;;2.20;;
1533;SDS011;760;48.822;9.304;2022-07-17T13:13:53;2.10;;;2.00;;
1533;SDS011;760;48.822;9.304;2022-07-17T13:16:19;2.17;;;1.97;;
1533;SDS011;760;48.822;9.304;2022-07-17T13:18:45;2.57;;;2.47;;
1533;SDS011;760;48.822;9.304;2022-07-17T13:21:11;2.40;;;2.30;;
1533;SDS011;760;48.822;9.304;2022-07-17T13:23:37;2.03;;;1.93;;
1533;SDS011;760;48.822;9.304;2022-07-17T13:26:03;2.00;;;1.90;;
1533;SDS011;760;48.822;9.304;2022-07-17T13:28:29;2.10;;;2.00;;
1533;SDS011;760;48.822;9.304;2022-07-17T13:30:55;1.90;;;1.80;;
1533;SDS011;760;48.822;9.304;2022-07-17T13:33:21;1.90;;;1.80;;
1533;SDS011;760;48.822;9.304;2022-07-17T13:35:47;2.33;;;2.23;;
1533;SDS011;760;48.822;9.304;2022-07-17T13:38:13;2.20;;;2.00;;
1533;SDS011;760;48.822;9.304;2022-07-17T13:40:39;2.20;;;2.10;;
1533;SDS011;760;48.822;9.304;2022-07-17T13:43:05;2.10;;;2.00;;
1533;SDS011;760;48.822;9.304;2022-07-17T13:45:31;1.97;;;1.87;;
1533;SDS011;760;48.822;9.304;2022-07-17T13:47:57;2.13;;;2.03;;
1533;SDS011;760;48.822;9.304;2022-07-17T13:50:23;2.23;;;2.13;;
1533;SDS011;760;48.822;9.304;2022-07-17T13:52:49;1.97;;;1.87;;
1533;SDS011;760;48.822;9.304;2022-07-17T13:55:15;1.40;;;1.40;;
1533;SDS011;760;48.822;9.304;2022-07-17T13:57:41;1.80;;;1.70;;
1533;SDS011;760;48.822;9.304;2022-07-17T14:00:07;2.10;;;2.00;;
1533;SDS011;760;48.822;9.304;2022-07-17T14:02:35;2.00;;;1.90;;
1533;SDS011;760;48.822;9.304;2022-07-17T14:05:02;1.80;;;1.70;;
1533;SDS011;760;48.822;9.304;2022-07-17T14:07:28;2.40;;;2.00;;
1533;SDS011;760;48.822;9.304;2022-07-17T14:09:54;1.93;;;1.83;;
1533;SDS011;760;48.822;9.304;2022-07-17T14:12:19;3.23;;;1.70;;
1533;SDS011;760;48.822;9.304;2022-07-17T14:14:45;1.87;;;1.77;;
1533;SDS011;760;48.822;9.304;2022-07-17T14:17:10;1.80;;;1.70;;
1533;SDS011;760;48.822;9.304;2022-07-17T14:19:36;1.77;;;1.67;;
1533;SDS011;760;48.822;9.304;2022-07-17T14:22:03;2.30;;;1.77;;
1533;SDS011;760;48.822;9.304;2022-07-17T14:24:29;1.67;;;1.57;;
1533;SDS011;760;48.822;9.304;2022-07-17T14:26:54;1.90;;;1.80;;
1533;SDS011;760;48.822;9.304;2022-07-17T14:29:20;1.57;;;1.57;;
1533;SDS011;760;48.822;9.304;2022-07-17T14:31:45;2.10;;;2.00;;
1533;SDS011;760;48.822;9.304;2022-07-17T14:34:12;2.00;;;1.90;;
1533;SDS011;760;48.822;9.304;2022-07-17T14:36:38;2.40;;;2.20;;
1533;SDS011;760;48.822;9.304;2022-07-17T14:39:04;2.77;;;1.80;;
1533;SDS011;760;48.822;9.304;2022-07-17T14:41:30;1.73;;;1.63;;
1533;SDS011;760;48.822;9.304;2022-07-17T14:43:55;1.90;;;1.80;;
1533;SDS011;760;48.822;9.304;2022-07-17T14:46:21;2.00;;;1.90;;
1533;SDS011;760;48.822;9.304;2022-07-17T14:48:47;2.20;;;2.07;;
1533;SDS011;760;48.822;9.304;2022-07-17T14:51:12;1.70;;;1.60;;
1533;SDS011;760;48.822;9.304;2022-07-17T14:53:38;1.73;;;1.63;;
1533;SDS011;760;48.822;9.304;2022-07-17T14:56:04;2.43;;;2.27;;
1533;SDS011;760;48.822;9.304;2022-07-17T14:58:30;1.90;;;1.80;;
1533;SDS011;760;48.822;9.304;2022-07-17T15:00:56;1.80;;;1.70;;
1533;SDS011;760;48.822;9.304;2022-07-17T15:03:22;1.83;;;1.73;;
1533;SDS011;760;48.822;9.304;2022-07-17T15:05:47;1.90;;;1.80;;
1533;SDS011;760;48.822;9.304;2022-07-17T15:08:13;1.83;;;1.63;;
1533;SDS011;760;48.822;9.304;2022-07-17T15:10:38;2.57;;;1.80;;
1533;SDS011;760;48.822;9.304;2022-07-17T15:13:04;2.20;;;2.00;;
1533;SDS011;760;48.822;9.304;2022-07-17T15:15:30;2.30;;;2.20;;
1533;SDS011;760;48.822;9.304;2022-07-17T15:17:55;1.70;;;1.60;;
1533;SDS011;760;48.822;9.304;2022-07-17T15:20:23;2.30;;;1.70;;
1533;SDS011;760;48.822;9.304;2022-07-17T15:22:48;2.00;;;1.90;;
1533;SDS011;760;48.822;9.304;2022-07-17T15:25:14;1.60;;;1.50;;
1533;SDS011;760;48.822;9.304;2022-07-17T15:27:40;1.80;;;1.70;;
1533;SDS011;760;48.822;9.304;2022-07-17T15:30:05;1.97;;;1.87;;
1533;SDS011;760;48.822;9.304;2022-07-17T15:32:32;1.60;;;1.50;;
1533;SDS011;760;48.822;9.304;2022-07-17T15:34:59;1.90;;;1.80;;
1533;SDS011;760;48.822;9.304;2022-07-17T15:37:25;2.33;;;2.13;;
1533;SDS011;760;48.822;9.304;2022-07-17T15:39:51;2.03;;;1.93;;
1533;SDS011;760;48.822;9.304;2022-07-17T15:42:17;1.77;;;1.67;;
1533;SDS011;760;48.822;9.304;2022-07-17T15:44:42;1.70;;;1.60;;
1533;SDS011;760;48.822;9.304;2022-07-17T15:47:08;3.67;;;1.77;;
1533;SDS011;760;48.822;9.304;2022-07-17T15:49:34;2.10;;;1.93;;
1533;SDS011;760;48.822;9.304;2022-07-17T15:51:59;1.60;;;1.60;;
1533;SDS011;760;48.822;9.304;2022-07-17T15:54:25;2.03;;;1.93;;
1533;SDS011;760;48.822;9.304;2022-07-17T15:56:50;1.80;;;1.70;;
1533;SDS011;760;48.822;9.304;2022-07-17T15:59:16;1.80;;;1.70;;
1533;SDS011;760;48.822;9.304;2022-07-17T16:01:42;1.90;;;1.80;;
1533;SDS011;760;48.822;9.304;2022-07-17T16:04:08;1.80;;;1.70;;
1533;SDS011;760;48.822;9.304;2022-07-17T16:06:34;2.43;;;1.73;;
1533;SDS011;760;48.822;9.304;2022-07-17T16:08:59;1.77;;;1.67;;
1533;SDS011;760;48.822;9.304;2022-07-17T16:11:25;3.33;;;2.73;;
1533;SDS011;760;48.822;9.304;2022-07-17T16:13:51;2.20;;;2.10;;
1533;SDS011;760;48.822;9.304;2022-07-17T16:16:17;1.73;;;1.63;;
1533;SDS011;760;48.822;9.304;2022-07-17T16:18:42;1.90;;;1.80;;
1533;SDS011;760;48.822;9.304;2022-07-17T16:21:08;1.80;;;1.70;;
1533;SDS011;760;48.822;9.304;2022-07-17T16:23:36;1.60;;;1.60;;
1533;SDS011;760;48.822;9.304;2022-07-17T16:26:02;1.87;;;1.77;;
1533;SDS011;760;48.822;9.304;2022-07-17T16:28:28;2.10;;;1.67;;
1533;SDS011;760;48.822;9.304;2022-07-17T16:30:54;1.87;;;1.77;;
1533;SDS011;760;48.822;9.304;2022-07-17T16:33:20;3.03;;;1.87;;
1533;SDS011;760;48.822;9.304;2022-07-17T16:35:46;2.07;;;1.97;;
1533;SDS011;760;48.822;9.304;2022-07-17T16:38:13;1.90;;;1.80;;
1533;SDS011;760;48.822;9.304;2022-07-17T16:40:39;3.43;;;1.93;;
1533;SDS011;760;48.822;9.304;2022-07-17T16:43:05;2.00;;;1.90;;
1533;SDS011;760;48.822;9.304;2022-07-17T16:45:31;1.37;;;1.37;;
1533;SDS011;760;48.822;9.304;2022-07-17T16:47:57;1.80;;;1.70;;
1533;SDS011;760;48.822;9.304;2022-07-17T16:50:23;1.97;;;1.87;;
1533;SDS011;760;48.822;9.304;2022-07-17T16:52:51;1.93;;;1.83;;
1533;SDS011;760;48.822;9.304;2022-07-17T16:55:17;2.40;;;1.60;;
1533;SDS011;760;48.822;9.304;2022-07-17T16:57:43;1.70;;;1.60;;
1533;SDS011;760;48.822;9.304;2022-07-17T17:00:09;1.63;;;1.53;;
1533;SDS011;760;48.822;9.304;2022-07-17T17:02:37;1.60;;;1.50;;
1533;SDS011;760;48.822;9.304;2022-07-17T17:05:04;1.77;;;1.67;;
1533;SDS011;760;48.822;9.304;2022-07-17T17:07:31;1.87;;;1.77;;
1533;SDS011;760;48.822;9.304;2022-07-17T17:09:56;1.67;;;1.57;;
1533;SDS011;760;48.822;9.304;2022-07-17T17:12:22;2.03;;;1.93;;
1533;SDS011;760;48.822;9.304;2022-07-17T17:14:48;1.53;;;1.43;;
1533;SDS011;760;48.822;9.304;2022-07-17T17:17:13;1.90;;;1.80;;
1533;SDS011;760;48.822;9.304;2022-07-17T17:19:39;1.97;;;1.87;;
1533;SDS011;760;48.822;9.304;2022-07-17T17:22:04;1.77;;;1.67;;
1533;SDS011;760;48.822;9.304;2022-07-17T17:24:30;1.83;;;1.60;;
1533;SDS011;760;48.822;9.304;2022-07-17T17:26:56;1.50;;;1.40;;
1533;SDS011;760;48.822;9.304;2022-07-17T17:29:22;1.60;;;1.50;;
1533;SDS011;760;48.822;9.304;2022-07-17T17:31:47;1.70;;;1.60;;
1533;SDS011;760;48.822;9.304;2022-07-17T17:34:13;2.03;;;1.93;;
1533;SDS011;760;48.822;9.304;2022-07-17T17:36:38;1.67;;;1.57;;
1533;SDS011;760;48.822;9.304;2022-07-17T17:39:04;1.80;;;1.70;;
1533;SDS011;760;48.822;9.304;2022-07-17T17:41:30;1.20;;;1.20;;
1533;SDS011;760;48.822;9.304;2022-07-17T17:43:56;1.20;;;1.20;;
1533;SDS011;760;48.822;9.304;2022-07-17T17:46:22;2.47;;;1.60;;
1533;SDS011;760;48.822;9.304;2022-07-17T17:48:47;1.30;;;1.30;;
1533;SDS011;760;48.822;9.304;2022-07-17T17:51:13;1.40;;;1.20;;
1533;SDS011;760;48.822;9.304;2022-07-17T17:53:39;1.63;;;1.53;;
1533;SDS011;760;48.822;9.304;2022-07-17T17:56:04;1.90;;;1.40;;
1533;SDS011;760;48.822;9.304;2022-07-17T17:58:30;1.70;;;1.40;;
1533;SDS011;760;48.822;9.304;2022-07-17T18:00:56;1.60;;;1.50;;
1533;SDS011;760;48.822;9.304;2022-07-17T18:03:21;2.10;;;1.70;;
1533;SDS011;760;48.822;9.304;2022-07-17T18:05:47;1.60;;;1.23;;
1533;SDS011;760;48.822;9.304;2022-07-17T18:08:12;1.77;;;1.67;;
1533;SDS011;760;48.822;9.304;2022-07-17T18:10:38;1.47;;;1.20;;
1533;SDS011;760;48.822;9.304;2022-07-17T18:13:05;2.13;;;1.67;;
1533;SDS011;760;48.822;9.304;2022-07-17T18:15:31;1.50;;;1.40;;
1533;SDS011;760;48.822;9.304;2022-07-17T18:17:57;2.13;;;1.40;;
1533;SDS011;760;48.822;9.304;2022-07-17T18:20:23;1.70;;;1.57;;
1533;SDS011;760;48.822;9.304;2022-07-17T18:22:48;1.53;;;1.43;;
1533;SDS011;760;48.822;9.304;2022-07-17T18:25:15;1.27;;;1.23;;
1533;SDS011;760;48.822;9.304;2022-07-17T18:27:41;1.40;;;1.30;;
1533;SDS011;760;48.822;9.304;2022-07-17T18:30:07;1.60;;;1.50;;
1533;SDS011;760;48.822;9.304;2022-07-17T18:32:33;1.90;;;1.20;;
1533;SDS011;760;48.822;9.304;2022-07-17T18:34:59;1.60;;;1.50;;
1533;SDS011;760;48.822;9.304;2022-07-17T18:37:25;1.40;;;1.30;;
1533;SDS011;760;48.822;9.304;2022-07-17T18:39:50;1.10;;;1.10;;
1533;SDS011;760;48.822;9.304;2022-07-17T18:42:16;1.43;;;1.33;;
1533;SDS011;760;48.822;9.304;2022-07-17T18:44:41;1.40;;;1.30;;
1533;SDS011;760;48.822;9.304;2022-07-17T18:47:07;2.57;;;1.50;;
1533;SDS011;760;48.822;9.304;2022-07-17T18:49:33;1.57;;;1.47;;
1533;SDS011;760;48.822;9.304;2022-07-17T18:51:58;1.50;;;1.40;;
1533;SDS011;760;48.822;9.304;2022-07-17T18:54:24;1.73;;;1.40;;
1533;SDS011;760;48.822;9.304;2022-07-17T18:56:50;1.63;;;1.40;;
1533;SDS011;760;48.822;9.304;2022-07-17T18:59:15;2.30;;;1.60;;
1533;SDS011;760;48.822;9.304;2022-07-17T19:01:41;2.20;;;2.10;;
1533;SDS011;760;48.822;9.304;2022-07-17T19:04:07;1.60;;;1.50;;
1533;SDS011;760;48.822;9.304;2022-07-17T19:06:33;2.33;;;2.23;;
1533;SDS011;760;48.822;9.304;2022-07-17T19:09:00;1.60;;;1.50;;
1533;SDS011;760;48.822;9.304;2022-07-17T19:11:30;4.13;;;1.70;;
1533;SDS011;760;48.822;9.304;2022-07-17T19:13:57;2.00;;;1.40;;
1533;SDS011;760;48.822;9.304;2022-07-17T19:16:23;1.10;;;1.10;;
1533;SDS011;760;48.822;9.304;2022-07-17T19:18:49;4.30;;;1.90;;
1533;SDS011;760;48.822;9.304;2022-07-17T19:21:14;1.60;;;1.50;;
1533;SDS011;760;48.822;9.304;2022-07-17T19:23:40;1.27;;;1.20;;
1533;SDS011;760;48.822;9.304;2022-07-17T19:26:06;1.40;;;1.30;;
1533;SDS011;760;48.822;9.304;2022-07-17T19:28:32;1.37;;;1.27;;
1533;SDS011;760;48.822;9.304;2022-07-17T19:30:57;2.20;;;1.40;;
1533;SDS011;760;48.822;9.304;2022-07-17T19:33:24;1.20;;;1.10;;
1533;SDS011;760;48.822;9.304;2022-07-17T19:35:50;3.40;;;1.40;;
1533;SDS011;760;48.822;9.304;2022-07-17T19:38:17;1.60;;;1.50;;
1533;SDS011;760;48.822;9.304;2022-07-17T19:40:43;2.07;;;1.97;;
1533;SDS011;760;48.822;9.304;2022-07-17T19:43:09;1.33;;;1.33;;
1533;SDS011;760;48.822;9.304;2022-07-17T19:45:35;1.43;;;1.40;;
1533;SDS011;760;48.822;9.304;2022-07-17T19:48:01;1.80;;;1.70;;